Flight Track Log - Related Links

Times and Time Zones

All times are in EDT time to prevent confusion due to time zone crossing. See the CTL18 flight status page for this flight to view local times or setup timezone preferences in your user account.

Time Position Orientation Groundspeed Altitude Reporting Facility
EDT Latitude Longitude Course Direction KTS MPH feet Rate Location/Type
Mon 07:04:01 PM 42.6656 -83.3983 360° North 104 120 1,500  Level Cleveland Center
Mon 07:06:00 PM 42.7361 -83.3991 14° North  Level FlightAware Approximate
Mon 07:13:00 PM 42.9626 -83.4354 321° Northwest  Level FlightAware Approximate
Mon 07:14:00 PM 42.9899 -83.4656 321° Northwest  Level FlightAware Approximate
Mon 07:15:00 PM 43.0173 -83.4958 321° Northwest  Level FlightAware Approximate
Mon 07:16:00 PM 43.0447 -83.5260 321° Northwest  Level FlightAware Approximate
Mon 07:17:00 PM 43.0721 -83.5563 321° Northwest  Level FlightAware Approximate
Mon 07:18:00 PM 43.0994 -83.5865 321° Northwest  Level FlightAware Approximate
Mon 07:19:00 PM 43.1268 -83.6168 321° Northwest  Level FlightAware Approximate
Mon 07:20:00 PM 43.1541 -83.6472 321° Northwest  Level FlightAware Approximate
Mon 07:21:00 PM 43.1815 -83.6775 321° Northwest  Level FlightAware Approximate
Mon 07:22:00 PM 43.2088 -83.7079 321° Northwest  Level FlightAware Approximate
Mon 07:23:00 PM 43.2354 -83.7395 318° Northwest  Level FlightAware Approximate
Mon 07:24:00 PM 43.2617 -83.7716 318° Northwest  Level FlightAware Approximate
Mon 07:25:00 PM 43.2880 -83.8037 318° Northwest  Level FlightAware Approximate
Mon 07:26:00 PM 43.3143 -83.8358 318° Northwest  Level FlightAware Approximate
Mon 07:27:00 PM 43.3405 -83.8680 318° Northwest  Level FlightAware Approximate
Mon 07:28:00 PM 43.3668 -83.9002 324° Northwest  Level FlightAware Approximate
Mon 07:29:00 PM 43.3953 -83.9286 324° Northwest  Level FlightAware Approximate
Mon 07:30:00 PM 43.4238 -83.9570 324° Northwest  Level FlightAware Approximate
Mon 07:31:00 PM 43.4523 -83.9855 324° Northwest  Level FlightAware Approximate
Mon 07:32:00 PM 43.4807 -84.0140 324° Northwest  Level FlightAware Approximate
Mon 07:33:00 PM 43.5064 -84.0462 305° West  Level FlightAware Approximate

Login

Don't have an account? Register now (free) for customized features, flight alerts, and more!